sensor_id;sensor_type;location;lat;lon;timestamp;P1;durP1;ratioP1;P2;durP2;ratioP2
12145;SDS011;6136;47.032;15.398;2023-12-20T00:02:08;15.47;;;8.63;;
12145;SDS011;6136;47.032;15.398;2023-12-20T00:04:36;11.30;;;7.70;;
12145;SDS011;6136;47.032;15.398;2023-12-20T00:07:04;14.20;;;9.23;;
12145;SDS011;6136;47.032;15.398;2023-12-20T00:09:32;11.90;;;8.43;;
12145;SDS011;6136;47.032;15.398;2023-12-20T00:12:00;13.47;;;7.60;;
12145;SDS011;6136;47.032;15.398;2023-12-20T00:14:28;15.03;;;7.90;;
12145;SDS011;6136;47.032;15.398;2023-12-20T00:16:56;11.87;;;8.00;;
12145;SDS011;6136;47.032;15.398;2023-12-20T00:19:25;12.47;;;7.63;;
12145;SDS011;6136;47.032;15.398;2023-12-20T00:21:54;10.77;;;6.90;;
12145;SDS011;6136;47.032;15.398;2023-12-20T00:24:22;11.53;;;7.80;;
12145;SDS011;6136;47.032;15.398;2023-12-20T00:26:50;13.10;;;8.17;;
12145;SDS011;6136;47.032;15.398;2023-12-20T00:29:18;18.07;;;10.13;;
12145;SDS011;6136;47.032;15.398;2023-12-20T00:31:46;17.67;;;9.80;;
12145;SDS011;6136;47.032;15.398;2023-12-20T00:34:14;16.63;;;9.53;;
12145;SDS011;6136;47.032;15.398;2023-12-20T00:36:43;14.13;;;8.53;;
12145;SDS011;6136;47.032;15.398;2023-12-20T00:39:11;14.20;;;8.50;;
12145;SDS011;6136;47.032;15.398;2023-12-20T00:41:39;12.83;;;7.97;;
12145;SDS011;6136;47.032;15.398;2023-12-20T00:44:07;16.57;;;9.37;;
12145;SDS011;6136;47.032;15.398;2023-12-20T00:46:35;12.93;;;8.73;;
12145;SDS011;6136;47.032;15.398;2023-12-20T00:49:03;16.00;;;9.47;;
12145;SDS011;6136;47.032;15.398;2023-12-20T00:51:31;15.40;;;9.03;;
12145;SDS011;6136;47.032;15.398;2023-12-20T00:54:01;15.47;;;8.87;;
12145;SDS011;6136;47.032;15.398;2023-12-20T00:56:29;15.73;;;9.03;;
12145;SDS011;6136;47.032;15.398;2023-12-20T00:58:57;12.93;;;8.87;;
12145;SDS011;6136;47.032;15.398;2023-12-20T01:01:24;15.17;;;8.70;;
12145;SDS011;6136;47.032;15.398;2023-12-20T01:03:52;12.90;;;8.90;;
12145;SDS011;6136;47.032;15.398;2023-12-20T01:06:20;15.17;;;9.10;;
12145;SDS011;6136;47.032;15.398;2023-12-20T01:08:48;15.13;;;8.57;;
12145;SDS011;6136;47.032;15.398;2023-12-20T01:11:18;15.20;;;9.03;;
12145;SDS011;6136;47.032;15.398;2023-12-20T01:13:46;15.77;;;9.33;;
12145;SDS011;6136;47.032;15.398;2023-12-20T01:16:14;17.03;;;9.57;;
12145;SDS011;6136;47.032;15.398;2023-12-20T01:18:42;14.20;;;9.07;;
12145;SDS011;6136;47.032;15.398;2023-12-20T01:21:10;16.80;;;9.87;;
12145;SDS011;6136;47.032;15.398;2023-12-20T01:23:38;14.53;;;9.00;;
12145;SDS011;6136;47.032;15.398;2023-12-20T01:26:06;15.67;;;8.57;;
12145;SDS011;6136;47.032;15.398;2023-12-20T01:28:35;17.13;;;9.67;;
12145;SDS011;6136;47.032;15.398;2023-12-20T01:31:04;16.73;;;10.10;;
12145;SDS011;6136;47.032;15.398;2023-12-20T01:33:32;17.00;;;9.83;;
12145;SDS011;6136;47.032;15.398;2023-12-20T01:36:00;13.53;;;9.43;;
12145;SDS011;6136;47.032;15.398;2023-12-20T01:38:28;15.10;;;9.93;;
12145;SDS011;6136;47.032;15.398;2023-12-20T01:40:56;18.27;;;10.00;;
12145;SDS011;6136;47.032;15.398;2023-12-20T01:43:24;14.80;;;9.60;;
12145;SDS011;6136;47.032;15.398;2023-12-20T01:45:57;12.10;;;8.03;;
12145;SDS011;6136;47.032;15.398;2023-12-20T01:48:25;18.63;;;8.40;;
12145;SDS011;6136;47.032;15.398;2023-12-20T01:50:54;16.23;;;8.63;;
12145;SDS011;6136;47.032;15.398;2023-12-20T01:53:22;17.17;;;10.30;;
12145;SDS011;6136;47.032;15.398;2023-12-20T01:55:52;14.67;;;9.47;;
12145;SDS011;6136;47.032;15.398;2023-12-20T01:58:22;20.07;;;10.60;;
12145;SDS011;6136;47.032;15.398;2023-12-20T02:00:51;16.63;;;10.03;;
12145;SDS011;6136;47.032;15.398;2023-12-20T02:03:20;17.57;;;9.50;;
12145;SDS011;6136;47.032;15.398;2023-12-20T02:05:48;14.73;;;9.73;;
12145;SDS011;6136;47.032;15.398;2023-12-20T02:08:16;14.97;;;9.43;;
12145;SDS011;6136;47.032;15.398;2023-12-20T02:10:44;21.07;;;8.97;;
12145;SDS011;6136;47.032;15.398;2023-12-20T02:13:12;14.60;;;8.40;;
12145;SDS011;6136;47.032;15.398;2023-12-20T02:15:40;10.53;;;7.87;;
12145;SDS011;6136;47.032;15.398;2023-12-20T02:18:10;16.20;;;9.33;;
12145;SDS011;6136;47.032;15.398;2023-12-20T02:20:43;14.73;;;9.03;;
12145;SDS011;6136;47.032;15.398;2023-12-20T02:23:13;16.03;;;8.30;;
12145;SDS011;6136;47.032;15.398;2023-12-20T02:25:41;15.33;;;8.90;;
12145;SDS011;6136;47.032;15.398;2023-12-20T02:28:09;11.43;;;7.77;;
12145;SDS011;6136;47.032;15.398;2023-12-20T02:30:37;13.47;;;8.73;;
12145;SDS011;6136;47.032;15.398;2023-12-20T02:33:05;14.40;;;8.37;;
12145;SDS011;6136;47.032;15.398;2023-12-20T02:35:36;12.07;;;8.23;;
12145;SDS011;6136;47.032;15.398;2023-12-20T02:38:04;13.63;;;8.20;;
12145;SDS011;6136;47.032;15.398;2023-12-20T02:40:33;13.50;;;8.27;;
12145;SDS011;6136;47.032;15.398;2023-12-20T02:43:01;10.57;;;6.90;;
12145;SDS011;6136;47.032;15.398;2023-12-20T02:45:29;10.07;;;6.83;;
12145;SDS011;6136;47.032;15.398;2023-12-20T02:47:57;12.93;;;7.77;;
12145;SDS011;6136;47.032;15.398;2023-12-20T02:50:25;12.97;;;7.53;;
12145;SDS011;6136;47.032;15.398;2023-12-20T02:52:53;13.27;;;7.60;;
12145;SDS011;6136;47.032;15.398;2023-12-20T02:55:21;11.90;;;7.87;;
12145;SDS011;6136;47.032;15.398;2023-12-20T02:57:51;12.77;;;8.47;;
12145;SDS011;6136;47.032;15.398;2023-12-20T03:00:19;11.83;;;7.53;;
12145;SDS011;6136;47.032;15.398;2023-12-20T03:02:47;12.40;;;7.57;;
12145;SDS011;6136;47.032;15.398;2023-12-20T03:05:15;10.57;;;7.17;;
12145;SDS011;6136;47.032;15.398;2023-12-20T03:07:43;9.97;;;6.93;;
12145;SDS011;6136;47.032;15.398;2023-12-20T03:10:12;14.60;;;7.97;;
12145;SDS011;6136;47.032;15.398;2023-12-20T03:12:50;12.37;;;8.23;;
12145;SDS011;6136;47.032;15.398;2023-12-20T03:15:18;11.93;;;7.90;;
12145;SDS011;6136;47.032;15.398;2023-12-20T03:17:46;10.40;;;7.43;;
12145;SDS011;6136;47.032;15.398;2023-12-20T03:20:15;12.07;;;7.37;;
12145;SDS011;6136;47.032;15.398;2023-12-20T03:22:43;11.17;;;7.97;;
12145;SDS011;6136;47.032;15.398;2023-12-20T03:25:11;14.13;;;7.80;;
12145;SDS011;6136;47.032;15.398;2023-12-20T03:27:39;9.73;;;7.33;;
12145;SDS011;6136;47.032;15.398;2023-12-20T03:30:09;11.40;;;7.50;;
12145;SDS011;6136;47.032;15.398;2023-12-20T03:32:38;10.90;;;7.33;;
12145;SDS011;6136;47.032;15.398;2023-12-20T03:35:06;15.93;;;8.77;;
12145;SDS011;6136;47.032;15.398;2023-12-20T03:37:34;13.83;;;7.70;;
12145;SDS011;6136;47.032;15.398;2023-12-20T03:40:02;13.70;;;8.40;;
12145;SDS011;6136;47.032;15.398;2023-12-20T03:42:31;9.17;;;7.00;;
12145;SDS011;6136;47.032;15.398;2023-12-20T03:44:59;14.17;;;8.07;;
12145;SDS011;6136;47.032;15.398;2023-12-20T03:47:28;11.30;;;8.00;;
12145;SDS011;6136;47.032;15.398;2023-12-20T03:49:56;9.33;;;7.27;;
12145;SDS011;6136;47.032;15.398;2023-12-20T03:52:24;10.93;;;7.07;;
12145;SDS011;6136;47.032;15.398;2023-12-20T03:54:53;15.23;;;8.47;;
12145;SDS011;6136;47.032;15.398;2023-12-20T03:57:21;10.63;;;7.73;;
12145;SDS011;6136;47.032;15.398;2023-12-20T03:59:49;12.93;;;8.00;;
12145;SDS011;6136;47.032;15.398;2023-12-20T04:02:17;13.90;;;8.57;;
12145;SDS011;6136;47.032;15.398;2023-12-20T04:04:46;12.70;;;7.83;;
12145;SDS011;6136;47.032;15.398;2023-12-20T04:07:15;15.23;;;8.17;;
12145;SDS011;6136;47.032;15.398;2023-12-20T04:09:43;13.70;;;7.73;;
12145;SDS011;6136;47.032;15.398;2023-12-20T04:12:11;14.53;;;7.80;;
12145;SDS011;6136;47.032;15.398;2023-12-20T04:14:39;12.90;;;7.47;;
12145;SDS011;6136;47.032;15.398;2023-12-20T04:17:07;11.87;;;7.90;;
12145;SDS011;6136;47.032;15.398;2023-12-20T04:19:35;13.47;;;8.30;;
12145;SDS011;6136;47.032;15.398;2023-12-20T04:22:04;13.53;;;8.00;;
12145;SDS011;6136;47.032;15.398;2023-12-20T04:24:32;12.60;;;8.40;;
12145;SDS011;6136;47.032;15.398;2023-12-20T04:27:00;15.20;;;8.20;;
12145;SDS011;6136;47.032;15.398;2023-12-20T04:29:28;13.63;;;8.53;;
12145;SDS011;6136;47.032;15.398;2023-12-20T04:31:56;14.23;;;9.00;;
12145;SDS011;6136;47.032;15.398;2023-12-20T04:34:25;15.57;;;9.00;;
12145;SDS011;6136;47.032;15.398;2023-12-20T04:36:53;16.97;;;9.20;;
12145;SDS011;6136;47.032;15.398;2023-12-20T04:39:22;14.53;;;8.50;;
12145;SDS011;6136;47.032;15.398;2023-12-20T04:41:50;13.63;;;8.63;;
12145;SDS011;6136;47.032;15.398;2023-12-20T04:44:18;16.70;;;8.87;;
12145;SDS011;6136;47.032;15.398;2023-12-20T04:46:46;14.13;;;9.17;;
12145;SDS011;6136;47.032;15.398;2023-12-20T04:49:14;15.60;;;9.10;;
12145;SDS011;6136;47.032;15.398;2023-12-20T04:51:43;12.37;;;9.93;;
12145;SDS011;6136;47.032;15.398;2023-12-20T04:54:11;12.43;;;9.10;;
12145;SDS011;6136;47.032;15.398;2023-12-20T04:56:41;12.27;;;8.97;;
12145;SDS011;6136;47.032;15.398;2023-12-20T04:59:09;12.63;;;9.10;;
12145;SDS011;6136;47.032;15.398;2023-12-20T05:01:37;14.77;;;9.17;;
12145;SDS011;6136;47.032;15.398;2023-12-20T05:04:06;15.67;;;9.50;;
12145;SDS011;6136;47.032;15.398;2023-12-20T05:06:34;13.77;;;8.03;;
12145;SDS011;6136;47.032;15.398;2023-12-20T05:09:02;13.23;;;9.10;;
12145;SDS011;6136;47.032;15.398;2023-12-20T05:11:30;11.77;;;9.40;;
12145;SDS011;6136;47.032;15.398;2023-12-20T05:14:00;15.30;;;9.10;;
12145;SDS011;6136;47.032;15.398;2023-12-20T05:16:28;12.00;;;8.67;;
12145;SDS011;6136;47.032;15.398;2023-12-20T05:18:56;17.40;;;9.27;;
12145;SDS011;6136;47.032;15.398;2023-12-20T05:21:26;14.40;;;9.20;;
12145;SDS011;6136;47.032;15.398;2023-12-20T05:23:54;14.70;;;8.70;;
12145;SDS011;6136;47.032;15.398;2023-12-20T05:26:22;13.93;;;9.17;;
12145;SDS011;6136;47.032;15.398;2023-12-20T05:28:50;15.27;;;9.50;;
12145;SDS011;6136;47.032;15.398;2023-12-20T05:31:19;13.23;;;9.23;;
12145;SDS011;6136;47.032;15.398;2023-12-20T05:33:47;15.43;;;10.20;;
12145;SDS011;6136;47.032;15.398;2023-12-20T05:36:15;13.73;;;8.87;;
12145;SDS011;6136;47.032;15.398;2023-12-20T05:38:43;16.70;;;9.63;;
12145;SDS011;6136;47.032;15.398;2023-12-20T05:41:11;14.60;;;9.20;;
12145;SDS011;6136;47.032;15.398;2023-12-20T05:43:40;14.73;;;8.80;;
12145;SDS011;6136;47.032;15.398;2023-12-20T05:46:09;13.70;;;8.97;;
12145;SDS011;6136;47.032;15.398;2023-12-20T05:48:39;15.03;;;9.13;;
12145;SDS011;6136;47.032;15.398;2023-12-20T05:51:07;15.40;;;10.87;;
12145;SDS011;6136;47.032;15.398;2023-12-20T05:53:38;13.23;;;9.27;;
12145;SDS011;6136;47.032;15.398;2023-12-20T05:56:06;22.30;;;12.33;;
12145;SDS011;6136;47.032;15.398;2023-12-20T05:58:34;32.70;;;15.97;;
12145;SDS011;6136;47.032;15.398;2023-12-20T06:01:03;24.07;;;13.17;;
12145;SDS011;6136;47.032;15.398;2023-12-20T06:03:31;17.20;;;10.93;;
12145;SDS011;6136;47.032;15.398;2023-12-20T06:06:01;18.70;;;10.77;;
12145;SDS011;6136;47.032;15.398;2023-12-20T06:08:41;15.07;;;9.87;;
12145;SDS011;6136;47.032;15.398;2023-12-20T06:11:10;16.63;;;10.93;;
12145;SDS011;6136;47.032;15.398;2023-12-20T06:13:38;20.17;;;10.63;;
12145;SDS011;6136;47.032;15.398;2023-12-20T06:16:06;17.50;;;10.87;;
12145;SDS011;6136;47.032;15.398;2023-12-20T06:18:35;19.47;;;11.77;;
12145;SDS011;6136;47.032;15.398;2023-12-20T06:21:05;21.77;;;13.23;;
12145;SDS011;6136;47.032;15.398;2023-12-20T06:23:34;15.83;;;10.73;;
12145;SDS011;6136;47.032;15.398;2023-12-20T06:26:02;18.03;;;11.37;;
12145;SDS011;6136;47.032;15.398;2023-12-20T06:28:30;30.97;;;16.67;;
12145;SDS011;6136;47.032;15.398;2023-12-20T06:30:58;22.13;;;12.67;;
12145;SDS011;6136;47.032;15.398;2023-12-20T06:33:27;18.03;;;10.80;;
12145;SDS011;6136;47.032;15.398;2023-12-20T06:35:56;15.57;;;9.73;;
12145;SDS011;6136;47.032;15.398;2023-12-20T06:38:25;16.73;;;10.00;;
12145;SDS011;6136;47.032;15.398;2023-12-20T06:40:53;15.37;;;8.93;;
12145;SDS011;6136;47.032;15.398;2023-12-20T06:43:21;15.60;;;9.93;;
12145;SDS011;6136;47.032;15.398;2023-12-20T06:46:08;18.27;;;9.17;;
12145;SDS011;6136;47.032;15.398;2023-12-20T06:48:37;12.27;;;8.57;;
12145;SDS011;6136;47.032;15.398;2023-12-20T06:51:05;15.30;;;9.53;;
12145;SDS011;6136;47.032;15.398;2023-12-20T06:53:34;12.83;;;8.57;;
12145;SDS011;6136;47.032;15.398;2023-12-20T06:56:02;15.70;;;9.30;;
12145;SDS011;6136;47.032;15.398;2023-12-20T06:58:30;16.97;;;9.30;;
12145;SDS011;6136;47.032;15.398;2023-12-20T07:00:58;13.40;;;8.70;;
12145;SDS011;6136;47.032;15.398;2023-12-20T07:03:27;10.73;;;8.27;;
12145;SDS011;6136;47.032;15.398;2023-12-20T07:05:55;12.63;;;8.37;;
12145;SDS011;6136;47.032;15.398;2023-12-20T07:08:23;13.33;;;8.20;;
12145;SDS011;6136;47.032;15.398;2023-12-20T07:10:52;12.00;;;8.07;;
12145;SDS011;6136;47.032;15.398;2023-12-20T07:13:20;13.57;;;7.70;;
12145;SDS011;6136;47.032;15.398;2023-12-20T07:15:49;12.47;;;8.70;;
12145;SDS011;6136;47.032;15.398;2023-12-20T07:18:17;12.50;;;7.87;;
12145;SDS011;6136;47.032;15.398;2023-12-20T07:20:45;14.53;;;9.17;;
12145;SDS011;6136;47.032;15.398;2023-12-20T07:23:13;14.47;;;8.73;;
12145;SDS011;6136;47.032;15.398;2023-12-20T07:25:41;14.93;;;8.47;;
12145;SDS011;6136;47.032;15.398;2023-12-20T07:28:11;35.93;;;15.70;;
12145;SDS011;6136;47.032;15.398;2023-12-20T07:30:39;30.10;;;14.10;;
12145;SDS011;6136;47.032;15.398;2023-12-20T07:33:07;20.53;;;12.27;;
12145;SDS011;6136;47.032;15.398;2023-12-20T07:35:36;21.30;;;11.10;;
12145;SDS011;6136;47.032;15.398;2023-12-20T07:38:05;21.03;;;10.60;;
12145;SDS011;6136;47.032;15.398;2023-12-20T07:40:33;25.93;;;11.33;;
12145;SDS011;6136;47.032;15.398;2023-12-20T07:43:01;16.90;;;9.80;;
12145;SDS011;6136;47.032;15.398;2023-12-20T07:45:30;21.93;;;10.83;;
12145;SDS011;6136;47.032;15.398;2023-12-20T07:47:59;16.97;;;9.97;;
12145;SDS011;6136;47.032;15.398;2023-12-20T07:50:27;20.40;;;9.80;;
12145;SDS011;6136;47.032;15.398;2023-12-20T07:52:55;24.73;;;10.37;;
12145;SDS011;6136;47.032;15.398;2023-12-20T07:55:23;19.70;;;10.00;;
12145;SDS011;6136;47.032;15.398;2023-12-20T07:57:51;18.53;;;10.90;;
12145;SDS011;6136;47.032;15.398;2023-12-20T08:00:19;18.30;;;10.73;;
12145;SDS011;6136;47.032;15.398;2023-12-20T08:02:49;25.07;;;10.87;;
12145;SDS011;6136;47.032;15.398;2023-12-20T08:05:17;20.43;;;11.83;;
12145;SDS011;6136;47.032;15.398;2023-12-20T08:07:45;18.83;;;10.23;;
12145;SDS011;6136;47.032;15.398;2023-12-20T08:10:13;19.50;;;9.80;;
12145;SDS011;6136;47.032;15.398;2023-12-20T08:12:41;17.83;;;9.80;;
12145;SDS011;6136;47.032;15.398;2023-12-20T08:15:09;18.93;;;9.97;;
12145;SDS011;6136;47.032;15.398;2023-12-20T08:17:37;19.50;;;10.40;;
12145;SDS011;6136;47.032;15.398;2023-12-20T08:20:07;17.10;;;9.43;;
12145;SDS011;6136;47.032;15.398;2023-12-20T08:22:35;16.90;;;10.50;;
12145;SDS011;6136;47.032;15.398;2023-12-20T08:25:04;18.73;;;11.77;;
12145;SDS011;6136;47.032;15.398;2023-12-20T08:27:32;15.53;;;9.23;;
12145;SDS011;6136;47.032;15.398;2023-12-20T08:30:00;16.20;;;10.63;;
12145;SDS011;6136;47.032;15.398;2023-12-20T08:32:28;16.67;;;10.60;;
12145;SDS011;6136;47.032;15.398;2023-12-20T08:34:56;18.73;;;10.73;;
12145;SDS011;6136;47.032;15.398;2023-12-20T08:37:26;15.23;;;10.23;;
12145;SDS011;6136;47.032;15.398;2023-12-20T08:39:54;13.10;;;9.27;;
12145;SDS011;6136;47.032;15.398;2023-12-20T08:42:22;16.33;;;9.57;;
12145;SDS011;6136;47.032;15.398;2023-12-20T08:44:51;18.73;;;10.43;;
12145;SDS011;6136;47.032;15.398;2023-12-20T08:47:19;17.70;;;9.80;;
12145;SDS011;6136;47.032;15.398;2023-12-20T08:49:47;22.40;;;12.67;;
12145;SDS011;6136;47.032;15.398;2023-12-20T08:52:15;15.87;;;10.87;;
12145;SDS011;6136;47.032;15.398;2023-12-20T08:54:45;19.17;;;10.13;;
12145;SDS011;6136;47.032;15.398;2023-12-20T08:57:13;20.27;;;10.90;;
12145;SDS011;6136;47.032;15.398;2023-12-20T08:59:41;14.67;;;8.97;;
12145;SDS011;6136;47.032;15.398;2023-12-20T09:02:09;18.33;;;9.83;;
12145;SDS011;6136;47.032;15.398;2023-12-20T09:04:37;15.43;;;9.20;;
12145;SDS011;6136;47.032;15.398;2023-12-20T09:07:05;16.20;;;9.53;;
12145;SDS011;6136;47.032;15.398;2023-12-20T09:09:34;15.80;;;9.33;;
12145;SDS011;6136;47.032;15.398;2023-12-20T09:12:04;17.17;;;9.77;;
12145;SDS011;6136;47.032;15.398;2023-12-20T09:14:32;14.30;;;8.93;;
12145;SDS011;6136;47.032;15.398;2023-12-20T09:17:00;14.33;;;8.90;;
12145;SDS011;6136;47.032;15.398;2023-12-20T09:19:29;13.33;;;7.70;;
12145;SDS011;6136;47.032;15.398;2023-12-20T09:21:58;15.10;;;8.50;;
12145;SDS011;6136;47.032;15.398;2023-12-20T09:24:26;12.10;;;8.23;;
12145;SDS011;6136;47.032;15.398;2023-12-20T09:26:54;12.60;;;8.63;;
12145;SDS011;6136;47.032;15.398;2023-12-20T09:29:23;20.10;;;11.53;;
12145;SDS011;6136;47.032;15.398;2023-12-20T09:31:51;20.90;;;10.30;;
12145;SDS011;6136;47.032;15.398;2023-12-20T09:34:19;20.70;;;12.77;;
12145;SDS011;6136;47.032;15.398;2023-12-20T09:36:48;20.37;;;13.50;;
12145;SDS011;6136;47.032;15.398;2023-12-20T09:39:16;24.67;;;14.27;;
12145;SDS011;6136;47.032;15.398;2023-12-20T09:41:46;27.83;;;15.47;;
12145;SDS011;6136;47.032;15.398;2023-12-20T09:44:17;28.80;;;15.43;;
12145;SDS011;6136;47.032;15.398;2023-12-20T09:46:48;31.40;;;14.17;;
12145;SDS011;6136;47.032;15.398;2023-12-20T09:49:17;25.70;;;13.77;;
12145;SDS011;6136;47.032;15.398;2023-12-20T09:51:46;24.73;;;14.03;;
12145;SDS011;6136;47.032;15.398;2023-12-20T09:54:14;28.83;;;14.23;;
12145;SDS011;6136;47.032;15.398;2023-12-20T09:56:43;26.50;;;14.47;;
12145;SDS011;6136;47.032;15.398;2023-12-20T09:59:13;26.20;;;15.20;;
12145;SDS011;6136;47.032;15.398;2023-12-20T10:01:42;24.07;;;14.37;;
12145;SDS011;6136;47.032;15.398;2023-12-20T10:04:12;21.17;;;12.90;;
12145;SDS011;6136;47.032;15.398;2023-12-20T10:06:55;25.03;;;12.57;;
12145;SDS011;6136;47.032;15.398;2023-12-20T10:09:24;27.60;;;13.73;;
12145;SDS011;6136;47.032;15.398;2023-12-20T10:11:54;33.40;;;15.70;;
12145;SDS011;6136;47.032;15.398;2023-12-20T10:14:22;30.17;;;15.30;;
12145;SDS011;6136;47.032;15.398;2023-12-20T10:16:50;26.90;;;13.83;;
12145;SDS011;6136;47.032;15.398;2023-12-20T10:19:21;21.10;;;13.67;;
12145;SDS011;6136;47.032;15.398;2023-12-20T10:21:49;32.30;;;15.07;;
12145;SDS011;6136;47.032;15.398;2023-12-20T10:24:18;25.97;;;14.20;;
12145;SDS011;6136;47.032;15.398;2023-12-20T10:26:46;22.40;;;13.30;;
12145;SDS011;6136;47.032;15.398;2023-12-20T10:29:14;21.77;;;13.17;;
12145;SDS011;6136;47.032;15.398;2023-12-20T10:31:42;27.80;;;13.03;;
12145;SDS011;6136;47.032;15.398;2023-12-20T10:34:11;21.00;;;13.17;;
12145;SDS011;6136;47.032;15.398;2023-12-20T10:36:41;27.80;;;14.63;;
12145;SDS011;6136;47.032;15.398;2023-12-20T10:39:09;23.57;;;14.30;;
12145;SDS011;6136;47.032;15.398;2023-12-20T10:41:38;21.97;;;14.43;;
12145;SDS011;6136;47.032;15.398;2023-12-20T10:44:08;24.93;;;14.70;;
12145;SDS011;6136;47.032;15.398;2023-12-20T10:46:36;26.27;;;16.30;;
12145;SDS011;6136;47.032;15.398;2023-12-20T10:49:05;25.37;;;13.17;;
12145;SDS011;6136;47.032;15.398;2023-12-20T10:51:34;25.93;;;14.43;;
12145;SDS011;6136;47.032;15.398;2023-12-20T10:54:04;25.60;;;14.03;;
12145;SDS011;6136;47.032;15.398;2023-12-20T10:56:32;23.30;;;13.97;;
12145;SDS011;6136;47.032;15.398;2023-12-20T10:59:02;24.53;;;14.67;;
12145;SDS011;6136;47.032;15.398;2023-12-20T11:01:32;20.63;;;13.33;;
12145;SDS011;6136;47.032;15.398;2023-12-20T11:04:01;32.80;;;13.80;;
12145;SDS011;6136;47.032;15.398;2023-12-20T11:06:35;25.03;;;14.47;;
12145;SDS011;6136;47.032;15.398;2023-12-20T11:09:08;28.77;;;13.57;;
12145;SDS011;6136;47.032;15.398;2023-12-20T11:11:42;26.37;;;14.33;;
12145;SDS011;6136;47.032;15.398;2023-12-20T11:14:15;24.63;;;13.10;;
12145;SDS011;6136;47.032;15.398;2023-12-20T11:16:45;23.13;;;13.53;;
12145;SDS011;6136;47.032;15.398;2023-12-20T11:19:20;26.33;;;13.10;;
12145;SDS011;6136;47.032;15.398;2023-12-20T11:21:49;21.93;;;12.77;;
12145;SDS011;6136;47.032;15.398;2023-12-20T11:24:22;24.77;;;14.07;;
12145;SDS011;6136;47.032;15.398;2023-12-20T11:26:51;23.20;;;13.10;;
12145;SDS011;6136;47.032;15.398;2023-12-20T11:29:29;20.47;;;13.63;;
12145;SDS011;6136;47.032;15.398;2023-12-20T11:31:58;26.20;;;14.37;;
12145;SDS011;6136;47.032;15.398;2023-12-20T11:34:27;29.83;;;14.30;;
12145;SDS011;6136;47.032;15.398;2023-12-20T11:36:59;23.87;;;13.03;;
12145;SDS011;6136;47.032;15.398;2023-12-20T11:39:29;28.83;;;16.53;;
12145;SDS011;6136;47.032;15.398;2023-12-20T11:42:03;25.93;;;15.50;;
12145;SDS011;6136;47.032;15.398;2023-12-20T11:44:31;26.53;;;15.93;;
12145;SDS011;6136;47.032;15.398;2023-12-20T11:47:00;30.93;;;15.53;;
12145;SDS011;6136;47.032;15.398;2023-12-20T11:49:28;24.37;;;14.83;;
12145;SDS011;6136;47.032;15.398;2023-12-20T11:51:57;28.60;;;14.30;;
12145;SDS011;6136;47.032;15.398;2023-12-20T11:54:29;28.03;;;16.20;;
12145;SDS011;6136;47.032;15.398;2023-12-20T11:56:57;32.73;;;15.17;;
12145;SDS011;6136;47.032;15.398;2023-12-20T11:59:25;22.83;;;14.57;;
12145;SDS011;6136;47.032;15.398;2023-12-20T12:01:53;26.90;;;14.10;;
12145;SDS011;6136;47.032;15.398;2023-12-20T12:04:23;23.10;;;13.73;;
12145;SDS011;6136;47.032;15.398;2023-12-20T12:06:52;23.70;;;13.90;;
12145;SDS011;6136;47.032;15.398;2023-12-20T12:09:21;21.57;;;13.43;;
12145;SDS011;6136;47.032;15.398;2023-12-20T12:11:50;31.03;;;14.23;;
12145;SDS011;6136;47.032;15.398;2023-12-20T12:14:18;27.77;;;14.40;;
12145;SDS011;6136;47.032;15.398;2023-12-20T12:16:47;18.57;;;12.17;;
12145;SDS011;6136;47.032;15.398;2023-12-20T12:19:20;21.40;;;13.40;;
12145;SDS011;6136;47.032;15.398;2023-12-20T12:21:48;23.47;;;12.57;;
12145;SDS011;6136;47.032;15.398;2023-12-20T12:24:19;22.50;;;13.70;;
12145;SDS011;6136;47.032;15.398;2023-12-20T12:26:51;18.10;;;12.63;;
12145;SDS011;6136;47.032;15.398;2023-12-20T12:29:19;20.20;;;12.03;;
12145;SDS011;6136;47.032;15.398;2023-12-20T12:31:47;23.33;;;14.17;;
12145;SDS011;6136;47.032;15.398;2023-12-20T12:34:15;22.27;;;13.33;;
12145;SDS011;6136;47.032;15.398;2023-12-20T12:36:44;23.17;;;13.77;;
12145;SDS011;6136;47.032;15.398;2023-12-20T12:39:14;24.13;;;13.83;;
12145;SDS011;6136;47.032;15.398;2023-12-20T12:41:42;31.23;;;14.90;;
12145;SDS011;6136;47.032;15.398;2023-12-20T12:44:11;25.93;;;14.13;;
12145;SDS011;6136;47.032;15.398;2023-12-20T12:46:43;25.43;;;13.23;;
12145;SDS011;6136;47.032;15.398;2023-12-20T12:49:12;27.43;;;13.53;;
12145;SDS011;6136;47.032;15.398;2023-12-20T12:51:40;26.03;;;14.27;;
12145;SDS011;6136;47.032;15.398;2023-12-20T12:54:08;20.17;;;12.73;;
12145;SDS011;6136;47.032;15.398;2023-12-20T12:56:36;21.90;;;12.80;;
12145;SDS011;6136;47.032;15.398;2023-12-20T12:59:04;25.40;;;13.47;;
12145;SDS011;6136;47.032;15.398;2023-12-20T13:01:34;25.63;;;14.13;;
12145;SDS011;6136;47.032;15.398;2023-12-20T13:04:03;19.70;;;13.50;;
12145;SDS011;6136;47.032;15.398;2023-12-20T13:06:33;26.13;;;14.03;;
12145;SDS011;6136;47.032;15.398;2023-12-20T13:09:02;25.37;;;14.27;;
12145;SDS011;6136;47.032;15.398;2023-12-20T13:11:31;26.33;;;13.27;;
12145;SDS011;6136;47.032;15.398;2023-12-20T13:13:59;27.73;;;14.77;;
12145;SDS011;6136;47.032;15.398;2023-12-20T13:16:27;21.90;;;12.60;;
12145;SDS011;6136;47.032;15.398;2023-12-20T13:18:56;22.97;;;13.27;;
12145;SDS011;6136;47.032;15.398;2023-12-20T13:21:26;23.43;;;13.47;;
12145;SDS011;6136;47.032;15.398;2023-12-20T13:23:57;28.67;;;14.23;;
12145;SDS011;6136;47.032;15.398;2023-12-20T13:26:25;21.90;;;13.77;;
12145;SDS011;6136;47.032;15.398;2023-12-20T13:28:53;24.77;;;13.53;;
12145;SDS011;6136;47.032;15.398;2023-12-20T13:31:21;24.40;;;14.10;;
12145;SDS011;6136;47.032;15.398;2023-12-20T13:33:49;25.47;;;12.60;;
12145;SDS011;6136;47.032;15.398;2023-12-20T13:36:20;21.17;;;12.93;;
12145;SDS011;6136;47.032;15.398;2023-12-20T13:38:48;22.07;;;13.60;;
12145;SDS011;6136;47.032;15.398;2023-12-20T13:41:16;17.57;;;11.83;;
12145;SDS011;6136;47.032;15.398;2023-12-20T13:43:45;22.77;;;13.03;;
12145;SDS011;6136;47.032;15.398;2023-12-20T13:46:13;20.10;;;12.57;;
12145;SDS011;6136;47.032;15.398;2023-12-20T13:48:41;25.03;;;12.20;;
12145;SDS011;6136;47.032;15.398;2023-12-20T13:51:09;22.63;;;12.57;;
12145;SDS011;6136;47.032;15.398;2023-12-20T13:53:39;25.20;;;13.13;;
12145;SDS011;6136;47.032;15.398;2023-12-20T13:56:07;21.70;;;12.47;;
12145;SDS011;6136;47.032;15.398;2023-12-20T13:58:35;23.97;;;13.30;;
12145;SDS011;6136;47.032;15.398;2023-12-20T14:01:04;24.77;;;14.00;;
12145;SDS011;6136;47.032;15.398;2023-12-20T14:03:33;21.27;;;11.80;;
12145;SDS011;6136;47.032;15.398;2023-12-20T14:06:01;26.63;;;13.00;;
12145;SDS011;6136;47.032;15.398;2023-12-20T14:08:30;24.20;;;12.57;;
12145;SDS011;6136;47.032;15.398;2023-12-20T14:11:00;29.50;;;14.03;;
12145;SDS011;6136;47.032;15.398;2023-12-20T14:13:28;29.30;;;13.47;;
12145;SDS011;6136;47.032;15.398;2023-12-20T14:15:58;22.27;;;13.00;;
12145;SDS011;6136;47.032;15.398;2023-12-20T14:18:27;28.00;;;14.33;;
12145;SDS011;6136;47.032;15.398;2023-12-20T14:20:57;22.80;;;14.70;;
12145;SDS011;6136;47.032;15.398;2023-12-20T14:23:25;27.53;;;14.07;;
12145;SDS011;6136;47.032;15.398;2023-12-20T14:25:53;27.60;;;14.73;;
12145;SDS011;6136;47.032;15.398;2023-12-20T14:28:24;33.27;;;14.57;;
12145;SDS011;6136;47.032;15.398;2023-12-20T14:30:55;29.50;;;15.67;;
12145;SDS011;6136;47.032;15.398;2023-12-20T14:33:24;23.37;;;14.53;;
12145;SDS011;6136;47.032;15.398;2023-12-20T14:35:52;32.80;;;15.07;;
12145;SDS011;6136;47.032;15.398;2023-12-20T14:38:20;25.40;;;14.87;;